sensor_id;sensor_type;location;lat;lon;timestamp;P1;durP1;ratioP1;P2;durP2;ratioP2
55728;SDS011;41633;39.720;2.910;2022-08-18T00:01:06;14.38;;;4.45;;
55728;SDS011;41633;39.720;2.910;2022-08-18T00:03:33;14.63;;;4.63;;
55728;SDS011;41633;39.720;2.910;2022-08-18T00:05:59;20.38;;;4.90;;
55728;SDS011;41633;39.720;2.910;2022-08-18T00:08:25;17.02;;;4.90;;
55728;SDS011;41633;39.720;2.910;2022-08-18T00:10:53;17.60;;;5.00;;
55728;SDS011;41633;39.720;2.910;2022-08-18T00:13:20;15.07;;;4.65;;
55728;SDS011;41633;39.720;2.910;2022-08-18T00:15:46;19.33;;;4.95;;
55728;SDS011;41633;39.720;2.910;2022-08-18T00:18:12;14.82;;;4.38;;
55728;SDS011;41633;39.720;2.910;2022-08-18T00:20:38;20.45;;;5.22;;
55728;SDS011;41633;39.720;2.910;2022-08-18T00:23:05;14.85;;;4.45;;
55728;SDS011;41633;39.720;2.910;2022-08-18T00:25:31;17.42;;;4.53;;
55728;SDS011;41633;39.720;2.910;2022-08-18T00:27:57;21.67;;;4.80;;
55728;SDS011;41633;39.720;2.910;2022-08-18T00:30:23;15.90;;;4.40;;
55728;SDS011;41633;39.720;2.910;2022-08-18T00:32:50;14.90;;;4.50;;
55728;SDS011;41633;39.720;2.910;2022-08-18T00:37:45;15.50;;;4.00;;
55728;SDS011;41633;39.720;2.910;2022-08-18T00:40:14;21.50;;;5.10;;
55728;SDS011;41633;39.720;2.910;2022-08-18T00:42:44;14.35;;;4.60;;
55728;SDS011;41633;39.720;2.910;2022-08-18T00:45:12;13.68;;;4.18;;
55728;SDS011;41633;39.720;2.910;2022-08-18T00:47:38;19.92;;;4.45;;
55728;SDS011;41633;39.720;2.910;2022-08-18T00:50:04;14.48;;;4.10;;
55728;SDS011;41633;39.720;2.910;2022-08-18T00:52:31;16.65;;;4.38;;
55728;SDS011;41633;39.720;2.910;2022-08-18T00:54:57;15.30;;;4.10;;
55728;SDS011;41633;39.720;2.910;2022-08-18T00:57:24;13.63;;;3.25;;
55728;SDS011;41633;39.720;2.910;2022-08-18T00:59:58;9.73;;;2.13;;
55728;SDS011;41633;39.720;2.910;2022-08-18T01:02:32;7.53;;;1.67;;
55728;SDS011;41633;39.720;2.910;2022-08-18T01:05:03;6.72;;;1.40;;
55728;SDS011;41633;39.720;2.910;2022-08-18T01:07:36;4.10;;;1.10;;
55728;SDS011;41633;39.720;2.910;2022-08-18T01:10:05;4.47;;;0.90;;
55728;SDS011;41633;39.720;2.910;2022-08-18T01:12:31;6.57;;;1.30;;
55728;SDS011;41633;39.720;2.910;2022-08-18T01:14:57;4.00;;;0.85;;
55728;SDS011;41633;39.720;2.910;2022-08-18T01:17:24;3.35;;;1.02;;
55728;SDS011;41633;39.720;2.910;2022-08-18T01:20:12;3.72;;;0.85;;
55728;SDS011;41633;39.720;2.910;2022-08-18T01:25:24;5.68;;;1.00;;
55728;SDS011;41633;39.720;2.910;2022-08-18T01:28:09;5.70;;;1.10;;
55728;SDS011;41633;39.720;2.910;2022-08-18T01:30:46;3.38;;;0.70;;
55728;SDS011;41633;39.720;2.910;2022-08-18T01:33:12;4.50;;;0.95;;
55728;SDS011;41633;39.720;2.910;2022-08-18T01:35:39;6.05;;;1.10;;
55728;SDS011;41633;39.720;2.910;2022-08-18T01:38:06;3.05;;;0.90;;
55728;SDS011;41633;39.720;2.910;2022-08-18T01:40:32;5.88;;;1.25;;
55728;SDS011;41633;39.720;2.910;2022-08-18T01:42:58;4.38;;;1.20;;
55728;SDS011;41633;39.720;2.910;2022-08-18T01:45:27;6.22;;;1.63;;
55728;SDS011;41633;39.720;2.910;2022-08-18T01:47:57;6.68;;;1.50;;
55728;SDS011;41633;39.720;2.910;2022-08-18T01:50:24;5.20;;;1.50;;
55728;SDS011;41633;39.720;2.910;2022-08-18T01:52:50;6.22;;;1.60;;
55728;SDS011;41633;39.720;2.910;2022-08-18T01:55:18;6.97;;;1.48;;
55728;SDS011;41633;39.720;2.910;2022-08-18T01:57:44;7.75;;;1.90;;
55728;SDS011;41633;39.720;2.910;2022-08-18T02:00:14;9.48;;;3.10;;
55728;SDS011;41633;39.720;2.910;2022-08-18T02:02:41;10.48;;;3.40;;
55728;SDS011;41633;39.720;2.910;2022-08-18T02:05:12;10.32;;;2.92;;
55728;SDS011;41633;39.720;2.910;2022-08-18T02:07:39;13.18;;;3.33;;
55728;SDS011;41633;39.720;2.910;2022-08-18T02:10:09;14.30;;;5.45;;
55728;SDS011;41633;39.720;2.910;2022-08-18T02:12:35;17.33;;;6.40;;
55728;SDS011;41633;39.720;2.910;2022-08-18T02:15:02;15.60;;;6.50;;
55728;SDS011;41633;39.720;2.910;2022-08-18T02:17:28;16.80;;;6.53;;
55728;SDS011;41633;39.720;2.910;2022-08-18T02:19:54;16.13;;;7.03;;
55728;SDS011;41633;39.720;2.910;2022-08-18T02:22:21;18.45;;;6.70;;
55728;SDS011;41633;39.720;2.910;2022-08-18T02:24:47;18.95;;;7.90;;
55728;SDS011;41633;39.720;2.910;2022-08-18T02:27:14;19.95;;;6.75;;
55728;SDS011;41633;39.720;2.910;2022-08-18T02:29:40;13.20;;;4.88;;
55728;SDS011;41633;39.720;2.910;2022-08-18T02:32:06;12.82;;;2.80;;
55728;SDS011;41633;39.720;2.910;2022-08-18T02:34:33;15.07;;;1.73;;
55728;SDS011;41633;39.720;2.910;2022-08-18T02:36:59;6.55;;;1.27;;
55728;SDS011;41633;39.720;2.910;2022-08-18T02:39:26;7.43;;;1.52;;
55728;SDS011;41633;39.720;2.910;2022-08-18T02:41:52;10.13;;;1.98;;
55728;SDS011;41633;39.720;2.910;2022-08-18T02:44:18;6.63;;;1.95;;
55728;SDS011;41633;39.720;2.910;2022-08-18T02:46:44;7.45;;;2.25;;
55728;SDS011;41633;39.720;2.910;2022-08-18T02:49:11;6.70;;;2.03;;
55728;SDS011;41633;39.720;2.910;2022-08-18T02:51:37;8.68;;;2.33;;
55728;SDS011;41633;39.720;2.910;2022-08-18T02:54:03;9.63;;;2.38;;
55728;SDS011;41633;39.720;2.910;2022-08-18T02:56:33;8.70;;;3.97;;
55728;SDS011;41633;39.720;2.910;2022-08-18T02:59:02;10.43;;;4.25;;
55728;SDS011;41633;39.720;2.910;2022-08-18T03:01:30;10.98;;;4.93;;
55728;SDS011;41633;39.720;2.910;2022-08-18T03:03:57;15.38;;;5.47;;
55728;SDS011;41633;39.720;2.910;2022-08-18T03:06:23;13.20;;;5.53;;
55728;SDS011;41633;39.720;2.910;2022-08-18T03:08:50;11.43;;;5.10;;
55728;SDS011;41633;39.720;2.910;2022-08-18T03:11:21;13.85;;;5.90;;
55728;SDS011;41633;39.720;2.910;2022-08-18T03:13:48;12.75;;;5.88;;
55728;SDS011;41633;39.720;2.910;2022-08-18T03:16:14;18.02;;;6.70;;
55728;SDS011;41633;39.720;2.910;2022-08-18T03:18:41;10.70;;;5.10;;
55728;SDS011;41633;39.720;2.910;2022-08-18T03:21:10;25.08;;;13.10;;
55728;SDS011;41633;39.720;2.910;2022-08-18T03:23:37;28.52;;;15.02;;
55728;SDS011;41633;39.720;2.910;2022-08-18T03:26:07;33.13;;;17.02;;
55728;SDS011;41633;39.720;2.910;2022-08-18T03:28:35;23.48;;;9.48;;
55728;SDS011;41633;39.720;2.910;2022-08-18T03:31:02;20.88;;;9.13;;
55728;SDS011;41633;39.720;2.910;2022-08-18T03:33:28;22.45;;;8.40;;
55728;SDS011;41633;39.720;2.910;2022-08-18T03:35:54;22.15;;;9.35;;
55728;SDS011;41633;39.720;2.910;2022-08-18T03:38:20;15.90;;;6.35;;
55728;SDS011;41633;39.720;2.910;2022-08-18T03:40:50;23.08;;;7.75;;
55728;SDS011;41633;39.720;2.910;2022-08-18T03:43:16;28.30;;;11.20;;
55728;SDS011;41633;39.720;2.910;2022-08-18T03:45:43;20.45;;;8.30;;
55728;SDS011;41633;39.720;2.910;2022-08-18T03:48:10;28.27;;;9.77;;
55728;SDS011;41633;39.720;2.910;2022-08-18T03:50:36;22.73;;;8.48;;
55728;SDS011;41633;39.720;2.910;2022-08-18T03:53:03;30.08;;;9.40;;
55728;SDS011;41633;39.720;2.910;2022-08-18T03:55:30;24.02;;;7.50;;
55728;SDS011;41633;39.720;2.910;2022-08-18T03:58:00;37.72;;;11.57;;
55728;SDS011;41633;39.720;2.910;2022-08-18T04:00:30;40.53;;;13.30;;
55728;SDS011;41633;39.720;2.910;2022-08-18T04:02:58;34.40;;;11.45;;
55728;SDS011;41633;39.720;2.910;2022-08-18T04:05:24;28.10;;;9.45;;
55728;SDS011;41633;39.720;2.910;2022-08-18T04:07:51;40.40;;;13.50;;
55728;SDS011;41633;39.720;2.910;2022-08-18T04:10:18;45.38;;;15.00;;
55728;SDS011;41633;39.720;2.910;2022-08-18T04:12:44;44.72;;;12.07;;
55728;SDS011;41633;39.720;2.910;2022-08-18T04:15:10;48.70;;;13.88;;
55728;SDS011;41633;39.720;2.910;2022-08-18T04:17:36;47.28;;;12.73;;
55728;SDS011;41633;39.720;2.910;2022-08-18T04:20:03;49.03;;;13.90;;
55728;SDS011;41633;39.720;2.910;2022-08-18T04:22:29;55.53;;;14.98;;
55728;SDS011;41633;39.720;2.910;2022-08-18T04:24:58;50.47;;;13.43;;
55728;SDS011;41633;39.720;2.910;2022-08-18T04:27:27;45.67;;;12.75;;
55728;SDS011;41633;39.720;2.910;2022-08-18T04:29:54;47.42;;;14.38;;
55728;SDS011;41633;39.720;2.910;2022-08-18T04:32:23;60.13;;;16.25;;
55728;SDS011;41633;39.720;2.910;2022-08-18T04:34:49;52.55;;;12.93;;
55728;SDS011;41633;39.720;2.910;2022-08-18T04:37:16;53.88;;;12.88;;
55728;SDS011;41633;39.720;2.910;2022-08-18T04:39:42;61.78;;;15.18;;
55728;SDS011;41633;39.720;2.910;2022-08-18T04:42:09;49.05;;;12.52;;
55728;SDS011;41633;39.720;2.910;2022-08-18T04:44:36;43.50;;;10.10;;
55728;SDS011;41633;39.720;2.910;2022-08-18T04:47:02;38.72;;;9.52;;
55728;SDS011;41633;39.720;2.910;2022-08-18T04:49:29;30.60;;;9.32;;
55728;SDS011;41633;39.720;2.910;2022-08-18T04:51:56;28.35;;;7.00;;
55728;SDS011;41633;39.720;2.910;2022-08-18T04:54:41;27.33;;;5.88;;
55728;SDS011;41633;39.720;2.910;2022-08-18T04:57:08;23.80;;;5.25;;
55728;SDS011;41633;39.720;2.910;2022-08-18T04:59:35;19.70;;;4.82;;
55728;SDS011;41633;39.720;2.910;2022-08-18T05:02:02;20.73;;;5.00;;
55728;SDS011;41633;39.720;2.910;2022-08-18T05:04:32;23.40;;;5.38;;
55728;SDS011;41633;39.720;2.910;2022-08-18T05:06:59;19.38;;;4.70;;
55728;SDS011;41633;39.720;2.910;2022-08-18T05:09:25;22.58;;;5.53;;
55728;SDS011;41633;39.720;2.910;2022-08-18T05:11:51;23.77;;;5.38;;
55728;SDS011;41633;39.720;2.910;2022-08-18T05:14:17;16.88;;;4.68;;
55728;SDS011;41633;39.720;2.910;2022-08-18T05:16:44;19.45;;;4.68;;
55728;SDS011;41633;39.720;2.910;2022-08-18T05:19:11;15.43;;;4.18;;
55728;SDS011;41633;39.720;2.910;2022-08-18T05:21:37;17.80;;;4.25;;
55728;SDS011;41633;39.720;2.910;2022-08-18T05:24:06;18.52;;;4.25;;
55728;SDS011;41633;39.720;2.910;2022-08-18T05:26:32;17.98;;;4.55;;
55728;SDS011;41633;39.720;2.910;2022-08-18T05:28:58;20.00;;;4.95;;
55728;SDS011;41633;39.720;2.910;2022-08-18T05:31:26;21.05;;;4.25;;
55728;SDS011;41633;39.720;2.910;2022-08-18T05:33:53;12.45;;;3.55;;
55728;SDS011;41633;39.720;2.910;2022-08-18T05:41:29;25.25;;;4.30;;
55728;SDS011;41633;39.720;2.910;2022-08-18T05:43:57;18.88;;;3.80;;
55728;SDS011;41633;39.720;2.910;2022-08-18T05:46:29;19.35;;;4.03;;
55728;SDS011;41633;39.720;2.910;2022-08-18T05:48:56;15.43;;;4.07;;
55728;SDS011;41633;39.720;2.910;2022-08-18T05:51:42;17.38;;;3.72;;
55728;SDS011;41633;39.720;2.910;2022-08-18T05:54:09;16.52;;;4.20;;
55728;SDS011;41633;39.720;2.910;2022-08-18T05:56:56;19.98;;;4.60;;
55728;SDS011;41633;39.720;2.910;2022-08-18T05:59:27;19.52;;;4.38;;
55728;SDS011;41633;39.720;2.910;2022-08-18T06:02:01;16.63;;;3.97;;
55728;SDS011;41633;39.720;2.910;2022-08-18T06:06:58;16.77;;;3.88;;
55728;SDS011;41633;39.720;2.910;2022-08-18T06:09:29;16.75;;;4.10;;
55728;SDS011;41633;39.720;2.910;2022-08-18T06:12:00;14.65;;;3.63;;
55728;SDS011;41633;39.720;2.910;2022-08-18T06:14:29;16.90;;;3.65;;
55728;SDS011;41633;39.720;2.910;2022-08-18T06:17:02;19.00;;;3.95;;
55728;SDS011;41633;39.720;2.910;2022-08-18T06:20:21;15.02;;;3.47;;
55728;SDS011;41633;39.720;2.910;2022-08-18T06:27:53;14.93;;;2.90;;
55728;SDS011;41633;39.720;2.910;2022-08-18T06:38:42;13.63;;;3.10;;
55728;SDS011;41633;39.720;2.910;2022-08-18T06:43:35;17.27;;;3.60;;
55728;SDS011;41633;39.720;2.910;2022-08-18T06:46:17;14.75;;;3.72;;
55728;SDS011;41633;39.720;2.910;2022-08-18T06:48:46;20.00;;;3.80;;
55728;SDS011;41633;39.720;2.910;2022-08-18T06:51:16;15.18;;;3.47;;
55728;SDS011;41633;39.720;2.910;2022-08-18T06:53:55;13.98;;;3.25;;
55728;SDS011;41633;39.720;2.910;2022-08-18T06:59:13;12.65;;;3.20;;
55728;SDS011;41633;39.720;2.910;2022-08-18T07:01:40;15.48;;;3.97;;
55728;SDS011;41633;39.720;2.910;2022-08-18T07:04:07;14.48;;;3.25;;
55728;SDS011;41633;39.720;2.910;2022-08-18T07:06:33;16.10;;;3.67;;
55728;SDS011;41633;39.720;2.910;2022-08-18T07:09:23;12.23;;;3.10;;
55728;SDS011;41633;39.720;2.910;2022-08-18T07:14:28;15.45;;;3.55;;
55728;SDS011;41633;39.720;2.910;2022-08-18T07:17:07;11.65;;;3.50;;
55728;SDS011;41633;39.720;2.910;2022-08-18T07:19:34;14.93;;;3.17;;
55728;SDS011;41633;39.720;2.910;2022-08-18T07:22:03;15.75;;;3.20;;
55728;SDS011;41633;39.720;2.910;2022-08-18T07:24:31;10.38;;;2.83;;
55728;SDS011;41633;39.720;2.910;2022-08-18T07:29:24;11.10;;;3.03;;
55728;SDS011;41633;39.720;2.910;2022-08-18T07:31:52;11.32;;;2.88;;
55728;SDS011;41633;39.720;2.910;2022-08-18T07:37:08;12.07;;;2.83;;
55728;SDS011;41633;39.720;2.910;2022-08-18T07:39:42;11.07;;;2.92;;
55728;SDS011;41633;39.720;2.910;2022-08-18T07:49:43;13.80;;;3.65;;
55728;SDS011;41633;39.720;2.910;2022-08-18T07:52:13;15.63;;;3.47;;
55728;SDS011;41633;39.720;2.910;2022-08-18T07:59:43;9.40;;;2.78;;
55728;SDS011;41633;39.720;2.910;2022-08-18T08:04:49;9.90;;;2.78;;
55728;SDS011;41633;39.720;2.910;2022-08-18T08:07:23;13.30;;;2.97;;
55728;SDS011;41633;39.720;2.910;2022-08-18T08:12:38;11.90;;;3.10;;
55728;SDS011;41633;39.720;2.910;2022-08-18T08:17:33;10.88;;;3.10;;
55728;SDS011;41633;39.720;2.910;2022-08-18T08:20:45;12.90;;;3.85;;
55728;SDS011;41633;39.720;2.910;2022-08-18T08:23:08;13.73;;;3.35;;
55728;SDS011;41633;39.720;2.910;2022-08-18T08:25:50;7.43;;;2.33;;
55728;SDS011;41633;39.720;2.910;2022-08-18T08:30:51;9.23;;;2.60;;
55728;SDS011;41633;39.720;2.910;2022-08-18T08:35:48;8.52;;;2.40;;
55728;SDS011;41633;39.720;2.910;2022-08-18T08:38:26;11.60;;;2.60;;
55728;SDS011;41633;39.720;2.910;2022-08-18T08:40:58;9.45;;;2.33;;
55728;SDS011;41633;39.720;2.910;2022-08-18T08:43:35;9.98;;;2.60;;
55728;SDS011;41633;39.720;2.910;2022-08-18T08:46:16;14.80;;;2.63;;
55728;SDS011;41633;39.720;2.910;2022-08-18T08:51:42;10.45;;;2.47;;
55728;SDS011;41633;39.720;2.910;2022-08-18T08:54:16;13.25;;;2.45;;
55728;SDS011;41633;39.720;2.910;2022-08-18T08:56:47;9.43;;;2.30;;
55728;SDS011;41633;39.720;2.910;2022-08-18T08:59:15;9.75;;;2.60;;
55728;SDS011;41633;39.720;2.910;2022-08-18T09:02:02;9.18;;;2.50;;
55728;SDS011;41633;39.720;2.910;2022-08-18T09:14:46;10.73;;;2.60;;
55728;SDS011;41633;39.720;2.910;2022-08-18T09:17:32;10.27;;;2.72;;
55728;SDS011;41633;39.720;2.910;2022-08-18T09:20:20;12.23;;;2.67;;
55728;SDS011;41633;39.720;2.910;2022-08-18T09:22:50;12.80;;;2.97;;
55728;SDS011;41633;39.720;2.910;2022-08-18T09:28:07;8.88;;;2.67;;
55728;SDS011;41633;39.720;2.910;2022-08-18T09:30:39;8.40;;;2.42;;
55728;SDS011;41633;39.720;2.910;2022-08-18T09:33:51;10.90;;;2.90;;
55728;SDS011;41633;39.720;2.910;2022-08-18T09:36:17;11.05;;;3.10;;
55728;SDS011;41633;39.720;2.910;2022-08-18T09:38:51;12.93;;;2.40;;
55728;SDS011;41633;39.720;2.910;2022-08-18T09:41:45;9.65;;;2.65;;
55728;SDS011;41633;39.720;2.910;2022-08-18T09:44:13;9.30;;;2.67;;
55728;SDS011;41633;39.720;2.910;2022-08-18T09:51:52;8.48;;;2.80;;
55728;SDS011;41633;39.720;2.910;2022-08-18T09:54:19;9.63;;;2.67;;
55728;SDS011;41633;39.720;2.910;2022-08-18T10:02:01;9.38;;;2.90;;
55728;SDS011;41633;39.720;2.910;2022-08-18T10:04:34;11.52;;;3.13;;
55728;SDS011;41633;39.720;2.910;2022-08-18T10:07:17;10.52;;;2.72;;
55728;SDS011;41633;39.720;2.910;2022-08-18T10:22:44;10.68;;;2.83;;
55728;SDS011;41633;39.720;2.910;2022-08-18T10:25:11;11.02;;;3.03;;
55728;SDS011;41633;39.720;2.910;2022-08-18T10:32:54;9.48;;;3.05;;
55728;SDS011;41633;39.720;2.910;2022-08-18T10:40:29;9.38;;;2.58;;
55728;SDS011;41633;39.720;2.910;2022-08-18T10:43:06;13.98;;;3.47;;
55728;SDS011;41633;39.720;2.910;2022-08-18T10:45:34;8.05;;;2.13;;
55728;SDS011;41633;39.720;2.910;2022-08-18T10:48:07;7.38;;;2.25;;
55728;SDS011;41633;39.720;2.910;2022-08-18T10:50:37;7.18;;;2.70;;
55728;SDS011;41633;39.720;2.910;2022-08-18T10:55:47;7.15;;;2.63;;
55728;SDS011;41633;39.720;2.910;2022-08-18T11:01:04;7.43;;;2.80;;
55728;SDS011;41633;39.720;2.910;2022-08-18T11:03:47;8.27;;;2.60;;
55728;SDS011;41633;39.720;2.910;2022-08-18T11:06:19;6.85;;;2.67;;
55728;SDS011;41633;39.720;2.910;2022-08-18T11:08:46;7.20;;;2.60;;
55728;SDS011;41633;39.720;2.910;2022-08-18T11:11:13;6.47;;;2.70;;
55728;SDS011;41633;39.720;2.910;2022-08-18T11:16:36;7.72;;;3.00;;
55728;SDS011;41633;39.720;2.910;2022-08-18T11:19:07;8.52;;;3.47;;
55728;SDS011;41633;39.720;2.910;2022-08-18T11:26:29;7.40;;;2.92;;
55728;SDS011;41633;39.720;2.910;2022-08-18T11:28:56;9.38;;;4.90;;
55728;SDS011;41633;39.720;2.910;2022-08-18T11:31:22;6.88;;;3.25;;
55728;SDS011;41633;39.720;2.910;2022-08-18T11:33:48;7.68;;;3.28;;
55728;SDS011;41633;39.720;2.910;2022-08-18T11:36:15;7.45;;;2.67;;
55728;SDS011;41633;39.720;2.910;2022-08-18T11:38:54;8.27;;;3.22;;
55728;SDS011;41633;39.720;2.910;2022-08-18T11:41:23;7.38;;;2.60;;
55728;SDS011;41633;39.720;2.910;2022-08-18T11:43:54;6.43;;;2.40;;
55728;SDS011;41633;39.720;2.910;2022-08-18T11:48:49;6.50;;;2.13;;
55728;SDS011;41633;39.720;2.910;2022-08-18T11:51:21;7.47;;;2.00;;
55728;SDS011;41633;39.720;2.910;2022-08-18T11:56:29;6.50;;;1.92;;
55728;SDS011;41633;39.720;2.910;2022-08-18T11:58:57;5.40;;;1.50;;
55728;SDS011;41633;39.720;2.910;2022-08-18T12:01:31;7.00;;;1.30;;
55728;SDS011;41633;39.720;2.910;2022-08-18T12:04:08;6.13;;;1.67;;
55728;SDS011;41633;39.720;2.910;2022-08-18T12:06:35;6.18;;;1.80;;
55728;SDS011;41633;39.720;2.910;2022-08-18T12:09:15;6.25;;;1.40;;
55728;SDS011;41633;39.720;2.910;2022-08-18T12:14:17;6.63;;;1.33;;
55728;SDS011;41633;39.720;2.910;2022-08-18T12:16:44;6.30;;;1.58;;
55728;SDS011;41633;39.720;2.910;2022-08-18T12:19:11;5.20;;;1.20;;
55728;SDS011;41633;39.720;2.910;2022-08-18T12:21:42;4.68;;;1.23;;
55728;SDS011;41633;39.720;2.910;2022-08-18T12:24:10;7.07;;;1.42;;
55728;SDS011;41633;39.720;2.910;2022-08-18T12:26:37;5.70;;;1.33;;
55728;SDS011;41633;39.720;2.910;2022-08-18T12:29:03;6.38;;;1.42;;
55728;SDS011;41633;39.720;2.910;2022-08-18T12:31:30;6.35;;;1.33;;
55728;SDS011;41633;39.720;2.910;2022-08-18T12:33:56;5.60;;;1.30;;
55728;SDS011;41633;39.720;2.910;2022-08-18T12:36:22;6.40;;;1.33;;
55728;SDS011;41633;39.720;2.910;2022-08-18T12:38:48;5.63;;;1.45;;
55728;SDS011;41633;39.720;2.910;2022-08-18T12:41:14;5.85;;;1.60;;
55728;SDS011;41633;39.720;2.910;2022-08-18T12:43:40;4.28;;;1.15;;
55728;SDS011;41633;39.720;2.910;2022-08-18T12:46:07;4.93;;;1.38;;
55728;SDS011;41633;39.720;2.910;2022-08-18T12:48:39;5.70;;;1.15;;
55728;SDS011;41633;39.720;2.910;2022-08-18T12:51:06;7.00;;;1.40;;
55728;SDS011;41633;39.720;2.910;2022-08-18T12:53:32;6.53;;;1.50;;
55728;SDS011;41633;39.720;2.910;2022-08-18T12:55:58;6.97;;;1.30;;
55728;SDS011;41633;39.720;2.910;2022-08-18T12:58:24;7.38;;;1.45;;
55728;SDS011;41633;39.720;2.910;2022-08-18T13:00:51;5.70;;;1.38;;
55728;SDS011;41633;39.720;2.910;2022-08-18T13:03:18;5.97;;;1.42;;
55728;SDS011;41633;39.720;2.910;2022-08-18T13:05:44;6.20;;;1.27;;
55728;SDS011;41633;39.720;2.910;2022-08-18T13:08:18;5.18;;;1.27;;
55728;SDS011;41633;39.720;2.910;2022-08-18T13:10:44;5.35;;;1.00;;
55728;SDS011;41633;39.720;2.910;2022-08-18T13:13:15;5.60;;;1.10;;
55728;SDS011;41633;39.720;2.910;2022-08-18T13:15:42;5.80;;;1.00;;
55728;SDS011;41633;39.720;2.910;2022-08-18T13:18:08;5.32;;;1.00;;
55728;SDS011;41633;39.720;2.910;2022-08-18T13:20:35;5.30;;;1.17;;
55728;SDS011;41633;39.720;2.910;2022-08-18T13:23:01;6.38;;;1.30;;
55728;SDS011;41633;39.720;2.910;2022-08-18T13:25:27;4.32;;;1.10;;
55728;SDS011;41633;39.720;2.910;2022-08-18T13:27:53;5.55;;;1.10;;
55728;SDS011;41633;39.720;2.910;2022-08-18T13:30:20;3.67;;;1.00;;
55728;SDS011;41633;39.720;2.910;2022-08-18T13:32:47;4.63;;;0.98;;
55728;SDS011;41633;39.720;2.910;2022-08-18T13:35:13;5.82;;;1.23;;
55728;SDS011;41633;39.720;2.910;2022-08-18T13:37:39;5.22;;;1.00;;
55728;SDS011;41633;39.720;2.910;2022-08-18T13:40:06;6.25;;;1.30;;
55728;SDS011;41633;39.720;2.910;2022-08-18T13:42:40;5.20;;;1.10;;
55728;SDS011;41633;39.720;2.910;2022-08-18T13:45:06;6.18;;;1.02;;
55728;SDS011;41633;39.720;2.910;2022-08-18T13:47:32;5.15;;;1.15;;
55728;SDS011;41633;39.720;2.910;2022-08-18T13:49:59;4.75;;;1.08;;
55728;SDS011;41633;39.720;2.910;2022-08-18T13:52:27;6.32;;;1.30;;
55728;SDS011;41633;39.720;2.910;2022-08-18T13:54:53;4.95;;;1.15;;
55728;SDS011;41633;39.720;2.910;2022-08-18T13:57:19;4.30;;;1.10;;
55728;SDS011;41633;39.720;2.910;2022-08-18T13:59:45;6.15;;;1.20;;
55728;SDS011;41633;39.720;2.910;2022-08-18T14:02:11;4.95;;;1.10;;
55728;SDS011;41633;39.720;2.910;2022-08-18T14:04:38;4.35;;;1.17;;
55728;SDS011;41633;39.720;2.910;2022-08-18T14:07:05;3.15;;;1.00;;
55728;SDS011;41633;39.720;2.910;2022-08-18T14:09:33;4.80;;;1.10;;
55728;SDS011;41633;39.720;2.910;2022-08-18T14:12:00;5.07;;;1.20;;
55728;SDS011;41633;39.720;2.910;2022-08-18T14:14:27;3.90;;;1.08;;
55728;SDS011;41633;39.720;2.910;2022-08-18T14:16:53;4.13;;;1.27;;
55728;SDS011;41633;39.720;2.910;2022-08-18T14:19:19;5.47;;;1.15;;
55728;SDS011;41633;39.720;2.910;2022-08-18T14:22:04;2.90;;;0.98;;
55728;SDS011;41633;39.720;2.910;2022-08-18T14:24:49;4.85;;;1.20;;
55728;SDS011;41633;39.720;2.910;2022-08-18T14:27:35;3.55;;;0.88;;
55728;SDS011;41633;39.720;2.910;2022-08-18T14:30:03;5.88;;;1.20;;
55728;SDS011;41633;39.720;2.910;2022-08-18T14:32:30;5.32;;;1.00;;
55728;SDS011;41633;39.720;2.910;2022-08-18T14:34:57;5.80;;;1.00;;
55728;SDS011;41633;39.720;2.910;2022-08-18T14:37:25;5.82;;;1.17;;
55728;SDS011;41633;39.720;2.910;2022-08-18T14:39:51;6.38;;;1.48;;
55728;SDS011;41633;39.720;2.910;2022-08-18T14:42:18;5.72;;;1.38;;
55728;SDS011;41633;39.720;2.910;2022-08-18T14:44:45;7.45;;;1.40;;
55728;SDS011;41633;39.720;2.910;2022-08-18T14:47:12;9.35;;;1.83;;
55728;SDS011;41633;39.720;2.910;2022-08-18T14:49:38;10.40;;;1.63;;
55728;SDS011;41633;39.720;2.910;2022-08-18T14:52:05;8.55;;;1.70;;
55728;SDS011;41633;39.720;2.910;2022-08-18T14:54:31;8.85;;;1.80;;
55728;SDS011;41633;39.720;2.910;2022-08-18T14:56:58;8.55;;;1.70;;
55728;SDS011;41633;39.720;2.910;2022-08-18T14:59:26;6.95;;;1.50;;
55728;SDS011;41633;39.720;2.910;2022-08-18T15:01:53;6.50;;;1.50;;
55728;SDS011;41633;39.720;2.910;2022-08-18T15:04:20;8.07;;;1.67;;
55728;SDS011;41633;39.720;2.910;2022-08-18T15:06:48;8.88;;;1.63;;
55728;SDS011;41633;39.720;2.910;2022-08-18T15:09:15;8.68;;;1.73;;
55728;SDS011;41633;39.720;2.910;2022-08-18T15:11:41;8.30;;;1.30;;
55728;SDS011;41633;39.720;2.910;2022-08-18T15:14:07;5.43;;;1.20;;
55728;SDS011;41633;39.720;2.910;2022-08-18T15:16:34;6.40;;;1.42;;
55728;SDS011;41633;39.720;2.910;2022-08-18T15:19:00;6.60;;;1.38;;
55728;SDS011;41633;39.720;2.910;2022-08-18T15:21:27;8.75;;;1.42;;
55728;SDS011;41633;39.720;2.910;2022-08-18T15:24:12;4.80;;;0.90;;
55728;SDS011;41633;39.720;2.910;2022-08-18T15:26:57;2.80;;;0.80;;
55728;SDS011;41633;39.720;2.910;2022-08-18T15:29:25;8.40;;;1.60;;
55728;SDS011;41633;39.720;2.910;2022-08-18T15:31:51;7.22;;;1.45;;
55728;SDS011;41633;39.720;2.910;2022-08-18T15:34:17;6.80;;;1.30;;
55728;SDS011;41633;39.720;2.910;2022-08-18T15:36:43;7.05;;;1.33;;
55728;SDS011;41633;39.720;2.910;2022-08-18T15:39:11;6.38;;;1.35;;
55728;SDS011;41633;39.720;2.910;2022-08-18T15:41:40;9.80;;;1.60;;
55728;SDS011;41633;39.720;2.910;2022-08-18T15:44:10;6.20;;;1.38;;
55728;SDS011;41633;39.720;2.910;2022-08-18T15:46:38;6.85;;;1.35;;
55728;SDS011;41633;39.720;2.910;2022-08-18T15:49:05;6.13;;;1.23;;
55728;SDS011;41633;39.720;2.910;2022-08-18T15:51:35;6.32;;;1.40;;
55728;SDS011;41633;39.720;2.910;2022-08-18T15:54:01;6.95;;;1.40;;
55728;SDS011;41633;39.720;2.910;2022-08-18T15:56:28;7.10;;;1.30;;
55728;SDS011;41633;39.720;2.910;2022-08-18T15:58:55;5.85;;;1.30;;
55728;SDS011;41633;39.720;2.910;2022-08-18T16:01:22;5.57;;;1.35;;
55728;SDS011;41633;39.720;2.910;2022-08-18T16:03:49;5.15;;;1.20;;
55728;SDS011;41633;39.720;2.910;2022-08-18T16:06:17;4.88;;;1.10;;
55728;SDS011;41633;39.720;2.910;2022-08-18T16:08:43;6.10;;;1.10;;
55728;SDS011;41633;39.720;2.910;2022-08-18T16:11:11;7.78;;;1.50;;
55728;SDS011;41633;39.720;2.910;2022-08-18T16:13:37;6.28;;;1.40;;
55728;SDS011;41633;39.720;2.910;2022-08-18T16:16:08;7.38;;;1.40;;
55728;SDS011;41633;39.720;2.910;2022-08-18T16:18:34;9.27;;;1.40;;
55728;SDS011;41633;39.720;2.910;2022-08-18T16:21:05;6.47;;;1.38;;
55728;SDS011;41633;39.720;2.910;2022-08-18T16:23:35;7.47;;;1.23;;
55728;SDS011;41633;39.720;2.910;2022-08-18T16:26:01;5.93;;;1.27;;
55728;SDS011;41633;39.720;2.910;2022-08-18T16:28:27;7.57;;;1.55;;
55728;SDS011;41633;39.720;2.910;2022-08-18T16:30:55;7.13;;;1.50;;
55728;SDS011;41633;39.720;2.910;2022-08-18T16:33:22;6.75;;;1.70;;
55728;SDS011;41633;39.720;2.910;2022-08-18T16:35:51;9.57;;;1.73;;
55728;SDS011;41633;39.720;2.910;2022-08-18T16:38:17;8.43;;;1.80;;
55728;SDS011;41633;39.720;2.910;2022-08-18T16:40:44;6.93;;;1.42;;
55728;SDS011;41633;39.720;2.910;2022-08-18T16:43:11;7.47;;;1.60;;
55728;SDS011;41633;39.720;2.910;2022-08-18T16:45:39;7.07;;;1.60;;
55728;SDS011;41633;39.720;2.910;2022-08-18T16:48:07;8.48;;;1.77;;
55728;SDS011;41633;39.720;2.910;2022-08-18T16:50:34;7.85;;;1.50;;
55728;SDS011;41633;39.720;2.910;2022-08-18T16:53:01;7.20;;;1.55;;
55728;SDS011;41633;39.720;2.910;2022-08-18T16:55:29;8.90;;;1.58;;
55728;SDS011;41633;39.720;2.910;2022-08-18T16:57:55;5.75;;;1.30;;
55728;SDS011;41633;39.720;2.910;2022-08-18T17:00:40;8.87;;;1.50;;
55728;SDS011;41633;39.720;2.910;2022-08-18T17:03:25;5.97;;;1.47;;
55728;SDS011;41633;39.720;2.910;2022-08-18T17:06:11;10.27;;;1.65;;
55728;SDS011;41633;39.720;2.910;2022-08-18T17:08:39;11.30;;;1.60;;